FW2211 Hermosillo MX current weather conditions

sailwx.info

Air temperature 23.3° C
Dewpoint 16.9° C

Last reported at 2020-May-31 12:04 UTC.
Time now 2020-May-31 12:19 UTC

Location: N 29°03' W 111°28'.
View on Google Maps.

See reports from other nearby stations

  
Tides and Currents Weather Stations Pressure Air Temp Water Temp Dewpoint Dewpoint Depression Visibility Wind Speed Wind Dir Waves Ship Positions
date/time (UTC)wind fromknots sea level pressurealtimeterstation pressurevisibilityair tempwater tempwave heightnotes
2020-May-31 12:04 23.3
2020-May-31 11:54 23.3
2020-May-31 11:44 23.9
2020-May-31 11:34 23.9
2020-May-31 11:24 067 1 gusting 1 23.9
2020-May-31 11:14 067 1 gusting 1 23.9
2020-May-31 11:04 067 1 gusting 2 23.9
2020-May-31 10:54 067 2 gusting 2 23.9
2020-May-31 10:44 067 2 gusting 2 23.3
2020-May-31 10:34 045 0 gusting 1 23.3
2020-May-31 10:24 23.9
2020-May-31 10:14 045 0 gusting 0 23.9
2020-May-31 10:04 23.9
2020-May-31 09:54 045 0 gusting 1 23.9
2020-May-31 09:44 045 0 gusting 1 23.9
2020-May-31 09:34 23.9
2020-May-31 09:24 045 0 gusting 0 24.4
2020-May-31 09:14 24.4
2020-May-31 09:04 045 0 gusting 0 24.4
2020-May-31 08:54 045 0 gusting 1 24.4
2020-May-31 08:44 045 0 gusting 0 24.4
2020-May-31 08:34 045 1 gusting 2 25.0
2020-May-31 08:24 045 1 gusting 2 25.0
2020-May-31 08:14 045 0 gusting 0 25.0
2020-May-31 08:04 045 0 gusting 1 25.0
2020-May-31 07:54 045 1 gusting 2 25.0
2020-May-31 07:44 067 1 gusting 1 25.0
2020-May-31 07:34 067 0 gusting 1 25.6
2020-May-31 07:24 067 1 gusting 1 25.6
2020-May-31 07:14 067 2 gusting 3 25.6
2020-May-31 07:04 25.6
2020-May-31 06:54 135 3 gusting 4 26.1
2020-May-31 06:44 135 1 gusting 3 26.1
2020-May-31 06:34 112 1 gusting 2 26.1
2020-May-31 06:24 112 1 gusting 2 26.1
2020-May-31 06:14 112 2 gusting 3 26.1
2020-May-31 06:04 112 2 gusting 3 26.7
2020-May-31 05:54 180 1 gusting 3 26.7
2020-May-31 05:44 157 0 gusting 0 26.7
2020-May-31 05:34 157 1 gusting 2 27.2
2020-May-31 05:24 135 1 gusting 2 27.2
2020-May-31 05:14 135 2 gusting 4 27.2
2020-May-31 05:04 135 2 gusting 2 27.2
2020-May-31 04:54 157 1 gusting 1 27.2
2020-May-31 04:44 157 0 gusting 0 27.2
2020-May-31 04:34 157 0 gusting 0 27.8
2020-May-31 04:24 157 0 gusting 0 27.8
2020-May-31 04:14 157 1 gusting 2 28.3
2020-May-31 04:04 180 0 gusting 1 28.3
2020-May-31 03:54 180 0 gusting 1 28.9
2020-May-31 03:44 202 1 gusting 1 29.4
2020-May-31 03:34 202 2 gusting 3 29.4
2020-May-31 03:24 202 1 gusting 2 30.0
2020-May-31 03:14 225 2 gusting 2 30.0
2020-May-31 03:04 225 3 gusting 5 30.6
2020-May-31 02:54 225 3 gusting 4 31.1
2020-May-31 02:44 225 4 gusting 5 31.7
2020-May-31 02:34 247 5 gusting 6 32.2
2020-May-31 02:24 225 2 gusting 4 32.8
2020-May-31 02:14 225 3 gusting 3 33.3
2020-May-31 02:04 225 3 gusting 4 33.9
2020-May-31 01:54 225 3 gusting 4 34.4
2020-May-31 01:44 225 4 gusting 6 35.0
2020-May-31 01:34 225 3 gusting 4 35.0
2020-May-31 01:24 247 4 gusting 6 35.6
2020-May-31 01:14 247 5 gusting 7 35.6
2020-May-31 01:04 225 3 gusting 4 36.1
2020-May-31 00:54 225 4 gusting 5 36.7
2020-May-31 00:44 225 3 gusting 5 36.7
2020-May-31 00:34 225 3 gusting 5 36.7
2020-May-31 00:24 202 5 gusting 6 37.2
2020-May-31 00:14 225 4 gusting 6 37.2
2020-May-31 00:04 225 4 gusting 5 37.2
2020-May-30 23:54 225 6 gusting 8 37.2
2020-May-30 23:44 225 7 gusting 9 37.2
2020-May-30 23:34 247 6 gusting 11 37.8
2020-May-30 23:24 225 7 gusting 10 37.8
2020-May-30 23:14 247 6 gusting 8 37.8
2020-May-30 23:04 247 7 gusting 10 37.8
2020-May-30 22:54 247 7 gusting 10 38.3
2020-May-30 22:44 225 9 gusting 11 38.3
2020-May-30 22:34 247 6 gusting 8 38.3
2020-May-30 22:24 247 8 gusting 12 38.3
2020-May-30 22:14 247 6 gusting 9 38.3
2020-May-30 22:04 247 7 gusting 9 38.3
2020-May-30 21:54 247 7 gusting 11 38.3
2020-May-30 21:44 225 9 gusting 11 38.3
2020-May-30 21:34 225 8 gusting 11 38.3
2020-May-30 20:54 247 5 gusting 6 39.4
2020-May-30 20:44 180 3 gusting 5 39.4
2020-May-30 20:24 202 4 gusting 6 38.9
2020-May-30 20:14 247 4 gusting 5 38.9
2020-May-30 20:04 180 1 gusting 2 38.9
2020-May-30 19:54 157 5 gusting 6 38.3
2020-May-30 19:44 225 5 gusting 6 38.9
2020-May-30 19:34 135 4 gusting 6 38.3
2020-May-30 19:24 270 3 gusting 6 38.3
2020-May-30 19:14 247 5 gusting 9 38.9
2020-May-30 19:04 180 1 gusting 2 38.3
2020-May-30 18:54 180 4 gusting 6 37.8
2020-May-30 18:44 112 2 gusting 3 37.8
2020-May-30 18:34 202 4 gusting 5 37.8
2020-May-30 18:24 180 1 gusting 3 37.8
2020-May-30 18:14 135 3 gusting 6 37.2
2020-May-30 18:04 090 1 gusting 3 36.7
2020-May-30 17:54 180 2 gusting 5 36.1
2020-May-30 17:44 157 2 gusting 7 36.1
2020-May-30 17:34 180 2 gusting 4 35.6
2020-May-30 17:24 090 1 gusting 2 35.0
2020-May-30 17:14 135 3 gusting 6 35.0
2020-May-30 17:04 112 2 gusting 5 34.4
2020-May-30 16:54 157 3 gusting 4 33.9
2020-May-30 16:44 315 2 gusting 3 33.9
2020-May-30 16:34 135 1 gusting 3 33.3
2020-May-30 16:24 157 1 gusting 4 32.8
2020-May-30 16:14 202 1 gusting 2 32.2
2020-May-30 16:04 202 2 gusting 3 32.2
2020-May-30 15:54 225 1 gusting 2 32.2
2020-May-30 15:44 045 0 gusting 1 32.2
2020-May-30 15:34 045 1 gusting 2 31.1
2020-May-30 15:24 337 3 gusting 5 30.6
2020-May-30 15:14 067 1 gusting 2 30.0
2020-May-30 15:04 045 1 gusting 2 29.4
2020-May-30 14:54 067 0 gusting 1 28.9
2020-May-30 14:44 045 2 gusting 4 28.3
2020-May-30 14:34 045 1 gusting 2 28.3
2020-May-30 14:24 022 0 gusting 1 27.8
2020-May-30 14:14 022 0 gusting 1 27.2
2020-May-30 14:04 022 0 gusting 0 26.7
2020-May-30 13:54 022 0 gusting 0 25.6
2020-May-30 13:44 022 0 gusting 1 25.0
2020-May-30 13:34 022 0 gusting 1 23.9
2020-May-30 13:24 022 0 gusting 0 23.3
2020-May-30 13:14 22.8
2020-May-30 13:04 22.8
2020-May-30 12:54 022 0 gusting 1 22.2
2020-May-30 12:44 022 1 gusting 2 22.2
2020-May-30 12:34 022 1 gusting 1 22.2
2020-May-30 12:24 022 1 gusting 1 22.2
2020-May-30 12:14 022 1 gusting 2 22.2
2020-May-30 12:04 022 1 gusting 2 22.2
2020-May-30 11:54 022 2 gusting 2 22.2
2020-May-30 11:44 202 1 gusting 1 22.2
2020-May-30 11:34 22.2
2020-May-30 11:24 22.8
2020-May-30 11:14 22.8
2020-May-30 11:04 22.8
2020-May-30 10:54 22.8
2020-May-30 10:44 112 0 gusting 0 22.8
2020-May-30 10:34 112 0 gusting 1 22.8
2020-May-30 10:24 112 0 gusting 1 23.3
2020-May-30 10:14 112 0 gusting 1 23.3
2020-May-30 10:04 112 0 gusting 1 23.3
2020-May-30 09:54 112 0 gusting 0 23.3
2020-May-30 09:44 112 1 gusting 2 23.3
2020-May-30 09:34 090 1 gusting 2 23.3
2020-May-30 09:24 090 0 gusting 1 23.3
2020-May-30 09:14 090 0 gusting 2 23.3
2020-May-30 09:04 090 0 gusting 1 23.3
2020-May-30 08:54 090 0 gusting 1 23.3
2020-May-30 08:44 090 0 gusting 0 23.3
2020-May-30 08:34 112 1 gusting 1 23.3
2020-May-30 08:24 23.9
2020-May-30 08:14 23.9
2020-May-30 08:04 24.4
2020-May-30 07:54 24.4
2020-May-30 07:44 24.4
2020-May-30 07:34 337 0 gusting 0 24.4
2020-May-30 07:24 337 0 gusting 0 24.4
2020-May-30 07:14 25.0
2020-May-30 07:04 25.6
2020-May-30 06:54 337 0 gusting 0 25.6
2020-May-30 06:44 26.1
2020-May-30 06:34 337 1 gusting 2 26.1
2020-May-30 06:24 337 1 gusting 2 26.1
2020-May-30 06:14 022 0 gusting 1 26.1
2020-May-30 06:04 022 1 gusting 2 26.7
2020-May-30 05:54 315 0 gusting 1 26.7
2020-May-30 05:44 315 1 gusting 2 26.7
2020-May-30 05:34 315 2 gusting 2 26.1
2020-May-30 05:24 26.7
2020-May-30 05:14 270 0 gusting 1 26.1
2020-May-30 05:04 247 2 gusting 3 26.1
2020-May-30 04:54 247 2 gusting 3 26.7
2020-May-30 04:44 180 1 gusting 1 26.7
2020-May-30 04:34 27.2
2020-May-30 04:24 27.2
2020-May-30 04:14 27.2
2020-May-30 04:04 27.8
2020-May-30 03:54 27.8
2020-May-30 03:44 180 0 gusting 0 28.3
2020-May-30 03:34 180 0 gusting 1 28.3
2020-May-30 03:24 180 1 gusting 3 28.9
2020-May-30 03:14 157 1 gusting 3 28.9
2020-May-30 03:04 180 1 gusting 4 29.4
2020-May-30 02:54 202 1 gusting 2 29.4
2020-May-30 02:44 180 1 gusting 3 30.0
2020-May-30 02:34 202 1 gusting 1 30.6
2020-May-30 02:24 225 0 gusting 1 31.1
2020-May-30 02:14 225 0 gusting 1 31.7
2020-May-30 02:04 225 3 gusting 3 32.2
2020-May-30 01:54 225 3 gusting 6 32.2
2020-May-30 01:44 225 3 gusting 5 32.8
2020-May-30 01:34 247 4 gusting 6 33.3
2020-May-30 01:24 247 4 gusting 6 33.9
2020-May-30 01:14 247 3 gusting 5 34.4
2020-May-30 01:04 247 6 gusting 7 35.0
2020-May-30 00:54 225 6 gusting 9 35.6
2020-May-30 00:44 247 6 gusting 7 35.6
2020-May-30 00:34 247 5 gusting 7 36.1
2020-May-30 00:24 247 6 gusting 8 36.1
2020-May-30 00:14 225 5 gusting 7 36.1
2020-May-30 00:04 247 6 gusting 9 36.7
2020-May-29 23:54 225 5 gusting 6 36.1
2020-May-29 23:44 225 5 gusting 6 36.1
2020-May-29 23:34 225 6 gusting 6 36.1
2020-May-29 23:24 225 6 gusting 7 36.1
2020-May-29 23:14 247 6 gusting 8 36.7
2020-May-29 23:04 225 6 gusting 9 36.1
2020-May-29 22:54 247 4 gusting 6 36.7
2020-May-29 22:44 247 6 gusting 9 36.1
2020-May-29 22:34 225 6 gusting 7 36.1
2020-May-29 22:24 225 6 gusting 7 35.6
2020-May-29 22:14 247 6 gusting 9 36.1
2020-May-29 22:04 225 7 gusting 10 35.6
2020-May-29 21:54 247 8 gusting 12 36.1
2020-May-29 21:44 225 6 gusting 8 36.7
2020-May-29 21:34 202 6 gusting 10 36.1
2020-May-29 21:24 225 7 gusting 10 36.1
2020-May-29 21:14 225 8 gusting 13 36.7
2020-May-29 21:04 225 8 gusting 13 36.7
2020-May-29 20:54 225 6 gusting 9 37.2
2020-May-29 20:44 247 3 gusting 6 37.8
2020-May-29 20:34 157 3 gusting 5 37.2
2020-May-29 20:24 157 4 gusting 6 37.8
2020-May-29 20:14 090 0 gusting 1 37.2
2020-May-29 20:04 180 2 gusting 5 36.7
2020-May-29 19:54 270 3 gusting 5 36.7
2020-May-29 19:44 225 3 gusting 6 36.7
2020-May-29 19:34 135 3 gusting 3 36.1
2020-May-29 19:24 180 3 gusting 5 36.1
2020-May-29 19:14 292 1 gusting 3 35.6
2020-May-29 19:04 225 2 gusting 3 35.6
2020-May-29 18:54 202 4 gusting 6 35.6
2020-May-29 18:44 135 3 gusting 6 35.6
2020-May-29 18:34 180 3 gusting 5 35.0
2020-May-29 18:24 180 3 gusting 6 35.0
2020-May-29 18:14 157 3 gusting 5 34.4
2020-May-29 18:04 180 3 gusting 4 33.9
2020-May-29 17:54 202 3 gusting 6 33.9
2020-May-29 17:44 33.9
2020-May-29 17:34 202 4 gusting 6 33.3
2020-May-29 17:24 247 1 gusting 2 32.8
2020-May-29 17:14 202 3 gusting 5 32.8
2020-May-29 17:04 270 1 gusting 2 32.8
2020-May-29 16:54 112 2 gusting 4 32.2
2020-May-29 16:44 225 1 gusting 2 32.2
2020-May-29 16:34 135 1 gusting 2 31.7
2020-May-29 16:24 157 3 gusting 6 31.7
2020-May-29 16:14 157 2 gusting 5 31.7
2020-May-29 16:04 180 3 gusting 5 31.1
2020-May-29 15:54 135 1 gusting 3 31.1
2020-May-29 15:44 090 2 gusting 3 30.6
2020-May-29 15:34 067 1 gusting 3 30.0
2020-May-29 15:24 067 3 gusting 4 30.0
2020-May-29 15:14 067 3 gusting 4 29.4
2020-May-29 15:04 067 5 gusting 6 28.9
2020-May-29 14:54 067 4 gusting 6 28.3
2020-May-29 14:44 067 6 gusting 8 28.3
2020-May-29 14:34 067 4 gusting 6 27.8
2020-May-29 14:24 067 4 gusting 6 27.2
2020-May-29 14:14 067 2 gusting 3 26.1
2020-May-29 14:04 090 1 gusting 2 25.0
2020-May-29 13:54 112 1 gusting 2 25.0
2020-May-29 13:44 112 1 gusting 2 24.4
2020-May-29 13:34 067 2 gusting 3 23.3
2020-May-29 13:24 112 1 gusting 2 22.8
2020-May-29 13:14 067 1 gusting 3 21.7
2020-May-29 13:04 067 0 gusting 1 21.7
2020-May-29 12:54 067 0 gusting 0 21.1
2020-May-29 12:44 067 0 gusting 0 21.1
2020-May-29 12:34 067 1 gusting 1 21.1
2020-May-29 12:24 067 0 gusting 1 21.1
2020-May-29 12:14 067 0 gusting 0 21.1
2020-May-29 12:04 067 1 gusting 2 21.1